sensor_id;sensor_type;location;lat;lon;timestamp;P1;durP1;ratioP1;P2;durP2;ratioP2
23565;SDS011;22140;48.988;8.544;2024-03-02T00:02:08;23.33;;;9.55;;
23565;SDS011;22140;48.988;8.544;2024-03-02T00:07:10;19.73;;;9.00;;
23565;SDS011;22140;48.988;8.544;2024-03-02T00:12:15;17.65;;;8.20;;
23565;SDS011;22140;48.988;8.544;2024-03-02T00:17:18;19.30;;;8.70;;
23565;SDS011;22140;48.988;8.544;2024-03-02T00:22:22;17.83;;;8.13;;
23565;SDS011;22140;48.988;8.544;2024-03-02T00:27:23;18.50;;;7.57;;
23565;SDS011;22140;48.988;8.544;2024-03-02T00:32:26;18.57;;;8.43;;
23565;SDS011;22140;48.988;8.544;2024-03-02T00:37:29;20.85;;;8.15;;
23565;SDS011;22140;48.988;8.544;2024-03-02T00:42:31;19.43;;;7.73;;
23565;SDS011;22140;48.988;8.544;2024-03-02T00:47:32;19.33;;;8.43;;
23565;SDS011;22140;48.988;8.544;2024-03-02T00:52:38;18.40;;;8.00;;
23565;SDS011;22140;48.988;8.544;2024-03-02T00:57:40;16.43;;;7.50;;
23565;SDS011;22140;48.988;8.544;2024-03-02T01:02:41;17.08;;;8.00;;
23565;SDS011;22140;48.988;8.544;2024-03-02T01:07:45;21.40;;;8.27;;
23565;SDS011;22140;48.988;8.544;2024-03-02T01:12:46;17.90;;;8.23;;
23565;SDS011;22140;48.988;8.544;2024-03-02T01:17:48;18.55;;;8.60;;
23565;SDS011;22140;48.988;8.544;2024-03-02T01:22:50;16.27;;;8.13;;
23565;SDS011;22140;48.988;8.544;2024-03-02T01:27:52;36.83;;;9.07;;
23565;SDS011;22140;48.988;8.544;2024-03-02T01:32:53;18.57;;;7.47;;
23565;SDS011;22140;48.988;8.544;2024-03-02T01:37:55;18.08;;;7.43;;
23565;SDS011;22140;48.988;8.544;2024-03-02T01:42:56;16.40;;;8.05;;
23565;SDS011;22140;48.988;8.544;2024-03-02T01:48:01;15.47;;;7.27;;
23565;SDS011;22140;48.988;8.544;2024-03-02T01:53:02;19.23;;;7.50;;
23565;SDS011;22140;48.988;8.544;2024-03-02T01:58:04;13.97;;;6.73;;
23565;SDS011;22140;48.988;8.544;2024-03-02T02:03:06;15.07;;;7.32;;
23565;SDS011;22140;48.988;8.544;2024-03-02T02:08:08;14.20;;;6.35;;
23565;SDS011;22140;48.988;8.544;2024-03-02T02:13:09;14.43;;;6.20;;
23565;SDS011;22140;48.988;8.544;2024-03-02T02:18:10;12.05;;;6.53;;
23565;SDS011;22140;48.988;8.544;2024-03-02T02:23:12;18.03;;;8.53;;
23565;SDS011;22140;48.988;8.544;2024-03-02T02:28:14;14.75;;;7.20;;
23565;SDS011;22140;48.988;8.544;2024-03-02T02:33:16;15.07;;;7.30;;
23565;SDS011;22140;48.988;8.544;2024-03-02T02:38:17;15.13;;;6.20;;
23565;SDS011;22140;48.988;8.544;2024-03-02T02:43:20;14.63;;;6.47;;
23565;SDS011;22140;48.988;8.544;2024-03-02T02:48:22;14.30;;;6.20;;
23565;SDS011;22140;48.988;8.544;2024-03-02T02:53:23;13.25;;;5.55;;
23565;SDS011;22140;48.988;8.544;2024-03-02T02:58:24;13.00;;;5.97;;
23565;SDS011;22140;48.988;8.544;2024-03-02T03:03:26;13.57;;;5.70;;
23565;SDS011;22140;48.988;8.544;2024-03-02T03:08:27;15.27;;;5.82;;
23565;SDS011;22140;48.988;8.544;2024-03-02T03:13:29;14.37;;;5.80;;
23565;SDS011;22140;48.988;8.544;2024-03-02T03:18:30;11.88;;;5.40;;
23565;SDS011;22140;48.988;8.544;2024-03-02T03:23:31;13.38;;;5.20;;
23565;SDS011;22140;48.988;8.544;2024-03-02T03:28:33;13.07;;;5.23;;
23565;SDS011;22140;48.988;8.544;2024-03-02T03:33:34;13.13;;;5.10;;
23565;SDS011;22140;48.988;8.544;2024-03-02T03:38:36;12.07;;;5.10;;
23565;SDS011;22140;48.988;8.544;2024-03-02T03:43:37;12.18;;;4.70;;
23565;SDS011;22140;48.988;8.544;2024-03-02T03:48:38;13.27;;;4.90;;
23565;SDS011;22140;48.988;8.544;2024-03-02T03:53:40;10.50;;;4.63;;
23565;SDS011;22140;48.988;8.544;2024-03-02T03:58:41;12.10;;;5.15;;
23565;SDS011;22140;48.988;8.544;2024-03-02T04:03:42;10.13;;;4.10;;
23565;SDS011;22140;48.988;8.544;2024-03-02T04:08:44;12.60;;;4.47;;
23565;SDS011;22140;48.988;8.544;2024-03-02T04:13:45;11.27;;;4.30;;
23565;SDS011;22140;48.988;8.544;2024-03-02T04:18:46;11.83;;;4.10;;
23565;SDS011;22140;48.988;8.544;2024-03-02T04:23:48;11.45;;;4.35;;
23565;SDS011;22140;48.988;8.544;2024-03-02T04:28:49;11.20;;;4.47;;
23565;SDS011;22140;48.988;8.544;2024-03-02T04:33:50;12.38;;;4.60;;
23565;SDS011;22140;48.988;8.544;2024-03-02T04:38:52;11.25;;;4.50;;
23565;SDS011;22140;48.988;8.544;2024-03-02T04:43:53;11.53;;;5.00;;
23565;SDS011;22140;48.988;8.544;2024-03-02T04:48:54;12.40;;;4.88;;
23565;SDS011;22140;48.988;8.544;2024-03-02T04:53:58;11.50;;;4.70;;
23565;SDS011;22140;48.988;8.544;2024-03-02T04:59:00;11.63;;;4.10;;
23565;SDS011;22140;48.988;8.544;2024-03-02T05:04:01;10.25;;;4.15;;
23565;SDS011;22140;48.988;8.544;2024-03-02T05:09:03;11.53;;;4.50;;
23565;SDS011;22140;48.988;8.544;2024-03-02T05:14:04;12.05;;;4.50;;
23565;SDS011;22140;48.988;8.544;2024-03-02T05:19:06;10.20;;;3.97;;
23565;SDS011;22140;48.988;8.544;2024-03-02T05:24:08;10.65;;;4.00;;
23565;SDS011;22140;48.988;8.544;2024-03-02T05:29:09;11.23;;;3.90;;
23565;SDS011;22140;48.988;8.544;2024-03-02T05:34:10;10.13;;;3.80;;
23565;SDS011;22140;48.988;8.544;2024-03-02T05:39:12;9.07;;;3.63;;
23565;SDS011;22140;48.988;8.544;2024-03-02T05:44:13;15.67;;;4.37;;
23565;SDS011;22140;48.988;8.544;2024-03-02T05:49:16;13.50;;;4.15;;
23565;SDS011;22140;48.988;8.544;2024-03-02T05:54:17;13.43;;;3.70;;
23565;SDS011;22140;48.988;8.544;2024-03-02T05:59:19;12.70;;;3.57;;
23565;SDS011;22140;48.988;8.544;2024-03-02T06:04:20;11.45;;;4.18;;
23565;SDS011;22140;48.988;8.544;2024-03-02T06:09:22;18.07;;;4.03;;
23565;SDS011;22140;48.988;8.544;2024-03-02T06:14:25;10.30;;;3.80;;
23565;SDS011;22140;48.988;8.544;2024-03-02T06:19:27;9.30;;;3.83;;
23565;SDS011;22140;48.988;8.544;2024-03-02T06:24:29;9.70;;;4.30;;
23565;SDS011;22140;48.988;8.544;2024-03-02T06:29:32;10.20;;;3.58;;
23565;SDS011;22140;48.988;8.544;2024-03-02T06:34:33;11.57;;;4.40;;
23565;SDS011;22140;48.988;8.544;2024-03-02T06:39:35;9.52;;;3.85;;
23565;SDS011;22140;48.988;8.544;2024-03-02T06:44:37;9.85;;;3.53;;
23565;SDS011;22140;48.988;8.544;2024-03-02T06:49:39;10.43;;;3.80;;
23565;SDS011;22140;48.988;8.544;2024-03-02T06:54:40;9.57;;;4.00;;
23565;SDS011;22140;48.988;8.544;2024-03-02T06:59:41;11.37;;;3.70;;
23565;SDS011;22140;48.988;8.544;2024-03-02T07:04:43;10.93;;;3.97;;
23565;SDS011;22140;48.988;8.544;2024-03-02T07:09:44;11.35;;;4.68;;
23565;SDS011;22140;48.988;8.544;2024-03-02T07:14:45;10.73;;;4.40;;
23565;SDS011;22140;48.988;8.544;2024-03-02T07:20:05;12.52;;;5.22;;
23565;SDS011;22140;48.988;8.544;2024-03-02T07:25:07;13.57;;;5.40;;
23565;SDS011;22140;48.988;8.544;2024-03-02T07:30:09;11.65;;;4.60;;
23565;SDS011;22140;48.988;8.544;2024-03-02T07:35:15;12.75;;;5.22;;
23565;SDS011;22140;48.988;8.544;2024-03-02T07:40:16;13.23;;;5.00;;
23565;SDS011;22140;48.988;8.544;2024-03-02T07:45:18;15.32;;;5.97;;
23565;SDS011;22140;48.988;8.544;2024-03-02T07:50:19;17.30;;;6.07;;
23565;SDS011;22140;48.988;8.544;2024-03-02T07:55:21;20.30;;;6.88;;
23565;SDS011;22140;48.988;8.544;2024-03-02T08:00:22;13.07;;;5.70;;
23565;SDS011;22140;48.988;8.544;2024-03-02T08:05:24;12.57;;;4.90;;
23565;SDS011;22140;48.988;8.544;2024-03-02T08:10:25;17.25;;;5.57;;
23565;SDS011;22140;48.988;8.544;2024-03-02T08:15:26;15.30;;;5.47;;
23565;SDS011;22140;48.988;8.544;2024-03-02T08:20:28;17.85;;;5.57;;
23565;SDS011;22140;48.988;8.544;2024-03-02T08:25:29;10.65;;;4.43;;
23565;SDS011;22140;48.988;8.544;2024-03-02T08:30:31;17.53;;;4.77;;
23565;SDS011;22140;48.988;8.544;2024-03-02T08:35:32;16.73;;;4.10;;
23565;SDS011;22140;48.988;8.544;2024-03-02T08:40:37;8.97;;;3.70;;
23565;SDS011;22140;48.988;8.544;2024-03-02T08:45:38;24.73;;;5.82;;
23565;SDS011;22140;48.988;8.544;2024-03-02T08:50:40;24.25;;;7.85;;
23565;SDS011;22140;48.988;8.544;2024-03-02T08:55:42;12.30;;;4.20;;
23565;SDS011;22140;48.988;8.544;2024-03-02T09:00:44;10.38;;;3.88;;
23565;SDS011;22140;48.988;8.544;2024-03-02T09:05:47;13.13;;;4.78;;
23565;SDS011;22140;48.988;8.544;2024-03-02T09:10:49;11.20;;;3.33;;
23565;SDS011;22140;48.988;8.544;2024-03-02T09:15:50;12.07;;;3.90;;
23565;SDS011;22140;48.988;8.544;2024-03-02T09:20:51;18.63;;;2.90;;
23565;SDS011;22140;48.988;8.544;2024-03-02T09:25:53;11.03;;;2.70;;
23565;SDS011;22140;48.988;8.544;2024-03-02T09:30:55;20.20;;;2.70;;
23565;SDS011;22140;48.988;8.544;2024-03-02T09:36:00;11.60;;;2.60;;
23565;SDS011;22140;48.988;8.544;2024-03-02T09:41:02;29.57;;;3.60;;
23565;SDS011;22140;48.988;8.544;2024-03-02T09:46:03;28.08;;;5.45;;
23565;SDS011;22140;48.988;8.544;2024-03-02T09:51:05;21.67;;;3.47;;
23565;SDS011;22140;48.988;8.544;2024-03-02T09:56:06;9.60;;;3.30;;
23565;SDS011;22140;48.988;8.544;2024-03-02T10:01:08;19.30;;;1.70;;
23565;SDS011;22140;48.988;8.544;2024-03-02T10:06:22;13.32;;;1.65;;
23565;SDS011;22140;48.988;8.544;2024-03-02T10:11:30;6.57;;;1.30;;
23565;SDS011;22140;48.988;8.544;2024-03-02T10:16:32;5.87;;;1.83;;
23565;SDS011;22140;48.988;8.544;2024-03-02T10:21:33;9.02;;;2.20;;
23565;SDS011;22140;48.988;8.544;2024-03-02T10:26:35;7.53;;;1.90;;
23565;SDS011;22140;48.988;8.544;2024-03-02T10:31:37;16.10;;;2.63;;
23565;SDS011;22140;48.988;8.544;2024-03-02T10:36:41;7.43;;;1.50;;
23565;SDS011;22140;48.988;8.544;2024-03-02T10:41:43;9.17;;;2.23;;
23565;SDS011;22140;48.988;8.544;2024-03-02T10:46:45;111.78;;;11.18;;
23565;SDS011;22140;48.988;8.544;2024-03-02T10:51:47;12.82;;;2.70;;
23565;SDS011;22140;48.988;8.544;2024-03-02T10:56:49;8.27;;;2.60;;
23565;SDS011;22140;48.988;8.544;2024-03-02T11:01:50;10.80;;;2.63;;
23565;SDS011;22140;48.988;8.544;2024-03-02T11:06:52;7.67;;;2.30;;
23565;SDS011;22140;48.988;8.544;2024-03-02T11:12:03;9.07;;;2.80;;
23565;SDS011;22140;48.988;8.544;2024-03-02T11:17:07;7.97;;;2.40;;
23565;SDS011;22140;48.988;8.544;2024-03-02T11:22:09;12.10;;;2.90;;
23565;SDS011;22140;48.988;8.544;2024-03-02T11:27:11;10.02;;;2.42;;
23565;SDS011;22140;48.988;8.544;2024-03-02T11:32:14;7.25;;;2.28;;
23565;SDS011;22140;48.988;8.544;2024-03-02T11:37:16;41.50;;;3.80;;
23565;SDS011;22140;48.988;8.544;2024-03-02T11:42:18;9.98;;;2.67;;
23565;SDS011;22140;48.988;8.544;2024-03-02T11:47:19;7.25;;;1.88;;
23565;SDS011;22140;48.988;8.544;2024-03-02T11:52:21;5.57;;;1.83;;
23565;SDS011;22140;48.988;8.544;2024-03-02T11:57:23;15.85;;;2.65;;
23565;SDS011;22140;48.988;8.544;2024-03-02T12:02:25;8.33;;;1.80;;
23565;SDS011;22140;48.988;8.544;2024-03-02T12:07:26;10.63;;;2.30;;
23565;SDS011;22140;48.988;8.544;2024-03-02T12:12:27;30.13;;;4.18;;
23565;SDS011;22140;48.988;8.544;2024-03-02T12:17:29;7.00;;;1.93;;
23565;SDS011;22140;48.988;8.544;2024-03-02T12:22:30;6.23;;;1.50;;
23565;SDS011;22140;48.988;8.544;2024-03-02T12:27:32;4.82;;;1.30;;
23565;SDS011;22140;48.988;8.544;2024-03-02T12:32:33;6.40;;;1.17;;
23565;SDS011;22140;48.988;8.544;2024-03-02T12:37:41;9.32;;;1.30;;
23565;SDS011;22140;48.988;8.544;2024-03-02T12:42:42;7.85;;;1.30;;
23565;SDS011;22140;48.988;8.544;2024-03-02T12:47:44;13.27;;;1.70;;
23565;SDS011;22140;48.988;8.544;2024-03-02T12:52:52;8.60;;;1.30;;
23565;SDS011;22140;48.988;8.544;2024-03-02T12:57:54;6.43;;;1.40;;
23565;SDS011;22140;48.988;8.544;2024-03-02T13:02:56;4.90;;;1.20;;
23565;SDS011;22140;48.988;8.544;2024-03-02T13:08:02;7.07;;;1.40;;
23565;SDS011;22140;48.988;8.544;2024-03-02T13:13:05;4.70;;;1.10;;
23565;SDS011;22140;48.988;8.544;2024-03-02T13:18:07;3.57;;;0.87;;
23565;SDS011;22140;48.988;8.544;2024-03-02T13:23:08;4.40;;;0.80;;
23565;SDS011;22140;48.988;8.544;2024-03-02T13:28:10;10.90;;;1.10;;
23565;SDS011;22140;48.988;8.544;2024-03-02T13:33:12;7.23;;;1.10;;
23565;SDS011;22140;48.988;8.544;2024-03-02T13:38:13;3.92;;;1.10;;
23565;SDS011;22140;48.988;8.544;2024-03-02T13:43:14;4.53;;;1.10;;
23565;SDS011;22140;48.988;8.544;2024-03-02T13:48:16;4.43;;;1.00;;
23565;SDS011;22140;48.988;8.544;2024-03-02T13:53:17;7.85;;;1.10;;
23565;SDS011;22140;48.988;8.544;2024-03-02T13:58:19;5.73;;;1.00;;
23565;SDS011;22140;48.988;8.544;2024-03-02T14:03:22;5.07;;;1.20;;
23565;SDS011;22140;48.988;8.544;2024-03-02T14:08:24;4.53;;;1.23;;
23565;SDS011;22140;48.988;8.544;2024-03-02T14:13:25;19.50;;;2.87;;
23565;SDS011;22140;48.988;8.544;2024-03-02T14:18:27;5.77;;;1.13;;
23565;SDS011;22140;48.988;8.544;2024-03-02T14:23:28;4.60;;;1.10;;
23565;SDS011;22140;48.988;8.544;2024-03-02T14:28:30;6.37;;;1.43;;
23565;SDS011;22140;48.988;8.544;2024-03-02T14:33:34;5.20;;;1.20;;
23565;SDS011;22140;48.988;8.544;2024-03-02T14:38:37;5.68;;;1.35;;
23565;SDS011;22140;48.988;8.544;2024-03-02T14:43:39;6.83;;;1.33;;
23565;SDS011;22140;48.988;8.544;2024-03-02T14:48:41;13.00;;;1.60;;
23565;SDS011;22140;48.988;8.544;2024-03-02T14:53:42;7.85;;;1.50;;
23565;SDS011;22140;48.988;8.544;2024-03-02T14:58:43;7.80;;;1.80;;
23565;SDS011;22140;48.988;8.544;2024-03-02T15:03:46;6.20;;;1.40;;
23565;SDS011;22140;48.988;8.544;2024-03-02T15:08:48;5.35;;;1.38;;
23565;SDS011;22140;48.988;8.544;2024-03-02T15:13:49;8.23;;;1.10;;
23565;SDS011;22140;48.988;8.544;2024-03-02T15:18:50;9.17;;;1.53;;
23565;SDS011;22140;48.988;8.544;2024-03-02T15:23:52;4.10;;;1.15;;
23565;SDS011;22140;48.988;8.544;2024-03-02T15:28:53;27.37;;;2.30;;
23565;SDS011;22140;48.988;8.544;2024-03-02T15:33:56;5.97;;;1.50;;
23565;SDS011;22140;48.988;8.544;2024-03-02T15:38:58;10.68;;;1.95;;
23565;SDS011;22140;48.988;8.544;2024-03-02T15:43:59;6.47;;;1.50;;
23565;SDS011;22140;48.988;8.544;2024-03-02T15:49:01;4.55;;;1.20;;
23565;SDS011;22140;48.988;8.544;2024-03-02T15:54:02;5.50;;;1.30;;
23565;SDS011;22140;48.988;8.544;2024-03-02T15:59:05;7.27;;;1.30;;
23565;SDS011;22140;48.988;8.544;2024-03-02T16:04:06;5.40;;;1.50;;
23565;SDS011;22140;48.988;8.544;2024-03-02T16:09:08;11.60;;;1.73;;
23565;SDS011;22140;48.988;8.544;2024-03-02T16:14:13;13.63;;;1.80;;
23565;SDS011;22140;48.988;8.544;2024-03-02T16:19:15;19.23;;;2.67;;
23565;SDS011;22140;48.988;8.544;2024-03-02T16:24:29;14.63;;;2.70;;
23565;SDS011;22140;48.988;8.544;2024-03-02T16:29:31;38.17;;;4.53;;
23565;SDS011;22140;48.988;8.544;2024-03-02T16:34:33;40.53;;;4.30;;
23565;SDS011;22140;48.988;8.544;2024-03-02T16:39:34;31.13;;;3.90;;
23565;SDS011;22140;48.988;8.544;2024-03-02T16:44:36;25.80;;;4.93;;
23565;SDS011;22140;48.988;8.544;2024-03-02T16:49:37;11.85;;;4.10;;
23565;SDS011;22140;48.988;8.544;2024-03-02T16:54:38;26.27;;;4.13;;
23565;SDS011;22140;48.988;8.544;2024-03-02T16:59:40;14.60;;;5.53;;
23565;SDS011;22140;48.988;8.544;2024-03-02T17:04:41;26.05;;;5.35;;
23565;SDS011;22140;48.988;8.544;2024-03-02T17:09:42;34.20;;;4.70;;
23565;SDS011;22140;48.988;8.544;2024-03-02T17:14:44;28.35;;;5.80;;
23565;SDS011;22140;48.988;8.544;2024-03-02T17:19:46;37.53;;;5.27;;
23565;SDS011;22140;48.988;8.544;2024-03-02T17:24:48;43.30;;;5.00;;
23565;SDS011;22140;48.988;8.544;2024-03-02T17:29:49;40.78;;;4.40;;
23565;SDS011;22140;48.988;8.544;2024-03-02T17:34:51;18.00;;;5.93;;
23565;SDS011;22140;48.988;8.544;2024-03-02T17:39:52;38.67;;;8.40;;
23565;SDS011;22140;48.988;8.544;2024-03-02T17:44:56;21.83;;;8.77;;
23565;SDS011;22140;48.988;8.544;2024-03-02T17:49:57;26.58;;;9.57;;
23565;SDS011;22140;48.988;8.544;2024-03-02T17:54:58;23.75;;;8.25;;
23565;SDS011;22140;48.988;8.544;2024-03-02T18:00:01;26.03;;;11.17;;
23565;SDS011;22140;48.988;8.544;2024-03-02T18:05:03;44.25;;;13.90;;
23565;SDS011;22140;48.988;8.544;2024-03-02T18:10:05;24.07;;;7.43;;
23565;SDS011;22140;48.988;8.544;2024-03-02T18:15:07;10.30;;;3.97;;
23565;SDS011;22140;48.988;8.544;2024-03-02T18:20:09;21.23;;;6.00;;
23565;SDS011;22140;48.988;8.544;2024-03-02T18:25:12;25.60;;;4.23;;
23565;SDS011;22140;48.988;8.544;2024-03-02T18:30:13;10.07;;;2.38;;
23565;SDS011;22140;48.988;8.544;2024-03-02T18:35:15;6.33;;;2.00;;
23565;SDS011;22140;48.988;8.544;2024-03-02T18:40:16;7.15;;;1.95;;
23565;SDS011;22140;48.988;8.544;2024-03-02T18:45:18;6.18;;;2.00;;
23565;SDS011;22140;48.988;8.544;2024-03-02T18:50:19;7.87;;;2.60;;
23565;SDS011;22140;48.988;8.544;2024-03-02T18:55:20;7.07;;;2.15;;
23565;SDS011;22140;48.988;8.544;2024-03-02T19:00:22;8.47;;;3.17;;
23565;SDS011;22140;48.988;8.544;2024-03-02T19:05:24;7.93;;;2.60;;
23565;SDS011;22140;48.988;8.544;2024-03-02T19:10:25;10.45;;;2.58;;
23565;SDS011;22140;48.988;8.544;2024-03-02T19:15:26;9.53;;;3.50;;
23565;SDS011;22140;48.988;8.544;2024-03-02T19:20:28;8.43;;;3.33;;
23565;SDS011;22140;48.988;8.544;2024-03-02T19:25:29;9.00;;;3.60;;
23565;SDS011;22140;48.988;8.544;2024-03-02T19:30:31;9.07;;;3.55;;
23565;SDS011;22140;48.988;8.544;2024-03-02T19:35:32;8.77;;;3.40;;
23565;SDS011;22140;48.988;8.544;2024-03-02T19:40:33;12.47;;;4.37;;
23565;SDS011;22140;48.988;8.544;2024-03-02T19:45:35;11.85;;;3.92;;
23565;SDS011;22140;48.988;8.544;2024-03-02T19:50:36;9.47;;;4.17;;
23565;SDS011;22140;48.988;8.544;2024-03-02T19:55:40;10.73;;;4.32;;
23565;SDS011;22140;48.988;8.544;2024-03-02T20:00:45;17.63;;;4.93;;
23565;SDS011;22140;48.988;8.544;2024-03-02T20:05:46;12.70;;;5.13;;
23565;SDS011;22140;48.988;8.544;2024-03-02T20:10:48;10.25;;;4.75;;
23565;SDS011;22140;48.988;8.544;2024-03-02T20:15:49;14.90;;;5.20;;
23565;SDS011;22140;48.988;8.544;2024-03-02T20:20:51;13.90;;;5.82;;
23565;SDS011;22140;48.988;8.544;2024-03-02T20:25:52;12.38;;;5.57;;
23565;SDS011;22140;48.988;8.544;2024-03-02T20:30:55;15.70;;;5.23;;
23565;SDS011;22140;48.988;8.544;2024-03-02T20:35:57;14.35;;;6.40;;
23565;SDS011;22140;48.988;8.544;2024-03-02T20:40:58;13.13;;;6.10;;
23565;SDS011;22140;48.988;8.544;2024-03-02T20:46:00;14.40;;;6.38;;
23565;SDS011;22140;48.988;8.544;2024-03-02T20:51:07;18.33;;;7.63;;
23565;SDS011;22140;48.988;8.544;2024-03-02T20:56:09;19.03;;;7.87;;
23565;SDS011;22140;48.988;8.544;2024-03-02T21:01:11;17.63;;;8.13;;
23565;SDS011;22140;48.988;8.544;2024-03-02T21:06:12;18.77;;;8.50;;
23565;SDS011;22140;48.988;8.544;2024-03-02T21:11:14;21.80;;;9.45;;
23565;SDS011;22140;48.988;8.544;2024-03-02T21:16:17;19.85;;;8.88;;
23565;SDS011;22140;48.988;8.544;2024-03-02T21:21:18;19.73;;;8.90;;
23565;SDS011;22140;48.988;8.544;2024-03-02T21:26:19;23.30;;;9.65;;
23565;SDS011;22140;48.988;8.544;2024-03-02T21:31:21;22.50;;;10.10;;
23565;SDS011;22140;48.988;8.544;2024-03-02T21:36:22;21.25;;;9.27;;
23565;SDS011;22140;48.988;8.544;2024-03-02T21:41:24;23.23;;;9.95;;
23565;SDS011;22140;48.988;8.544;2024-03-02T21:46:25;20.37;;;9.20;;
23565;SDS011;22140;48.988;8.544;2024-03-02T21:51:26;21.48;;;10.10;;
23565;SDS011;22140;48.988;8.544;2024-03-02T21:56:28;23.93;;;10.20;;
23565;SDS011;22140;48.988;8.544;2024-03-02T22:01:29;22.40;;;10.23;;
23565;SDS011;22140;48.988;8.544;2024-03-02T22:06:31;25.83;;;11.00;;
23565;SDS011;22140;48.988;8.544;2024-03-02T22:11:32;25.13;;;10.60;;
23565;SDS011;22140;48.988;8.544;2024-03-02T22:16:34;26.17;;;11.43;;
23565;SDS011;22140;48.988;8.544;2024-03-02T22:21:35;26.07;;;11.50;;
23565;SDS011;22140;48.988;8.544;2024-03-02T22:26:36;24.48;;;10.00;;
23565;SDS011;22140;48.988;8.544;2024-03-02T22:31:38;25.48;;;10.60;;
23565;SDS011;22140;48.988;8.544;2024-03-02T22:36:39;25.57;;;11.83;;
23565;SDS011;22140;48.988;8.544;2024-03-02T22:41:40;24.85;;;11.55;;
23565;SDS011;22140;48.988;8.544;2024-03-02T22:46:42;25.53;;;11.20;;
23565;SDS011;22140;48.988;8.544;2024-03-02T22:51:43;25.30;;;11.18;;
23565;SDS011;22140;48.988;8.544;2024-03-02T22:56:45;27.33;;;11.63;;
23565;SDS011;22140;48.988;8.544;2024-03-02T23:01:46;24.33;;;10.90;;
23565;SDS011;22140;48.988;8.544;2024-03-02T23:06:48;26.20;;;11.32;;
23565;SDS011;22140;48.988;8.544;2024-03-02T23:11:49;27.67;;;12.23;;
23565;SDS011;22140;48.988;8.544;2024-03-02T23:16:52;25.38;;;11.30;;
23565;SDS011;22140;48.988;8.544;2024-03-02T23:21:53;27.23;;;11.93;;
23565;SDS011;22140;48.988;8.544;2024-03-02T23:26:55;26.43;;;11.40;;
23565;SDS011;22140;48.988;8.544;2024-03-02T23:31:56;29.52;;;11.55;;
23565;SDS011;22140;48.988;8.544;2024-03-02T23:36:58;28.00;;;11.30;;
23565;SDS011;22140;48.988;8.544;2024-03-02T23:41:59;28.35;;;11.95;;
23565;SDS011;22140;48.988;8.544;2024-03-02T23:47:00;25.77;;;11.27;;
23565;SDS011;22140;48.988;8.544;2024-03-02T23:52:02;29.77;;;12.67;;
23565;SDS011;22140;48.988;8.544;2024-03-02T23:57:03;28.95;;;12.40;;
